Flight Track Log - Related Links

Times and Time Zones

All times are in EDT time to prevent confusion due to time zone crossing. See the ASQ4976 flight status page for this flight to view local times or setup timezone preferences in your user account.

Time Position Orientation Groundspeed Altitude Reporting Facility
EDT Latitude Longitude Course Direction KTS MPH feet Rate Location/Type
Mon 01:39:00 PM 42.6318 -73.9665 196° South  Level Estimated
Mon 01:40:26 PM 42.6617 -74.0833 180° South 231 266 11,500  Level Boston Center
Mon 01:42:00 PM 42.5431 -74.2460 225° Southwest  Level Estimated
Mon 01:42:26 PM 42.5714 -74.2500 225° Southwest 298 343 13,800  Level Boston Center
Mon 01:43:26 PM 42.4867 -74.3350 217° Southwest 344 396 15,800 1,900 Climbing Boston Center
Mon 01:44:26 PM 42.4083 -74.2847 155° Southeast 297 342 17,600 1,500 Climbing Boston Center
Mon 01:45:26 PM 42.3289 -74.1756 135° Southeast 338 389 18,800 1,433 Climbing Boston Center
Mon 01:46:00 PM 42.1046 -74.6942 180° South  Level Estimated
Mon 01:47:26 PM 42.1578 -74.0364 149° Southeast 375 432 21,900  Level Boston Center
Mon 01:48:26 PM 42.0411 -74.0447 183° South 391 450 23,000 1,050 Climbing Boston Center
Mon 01:49:26 PM 41.9178 -74.0528 183° South 417 480 24,000 1,343 Climbing Boston Center
Mon 01:51:00 PM 41.7475 -74.0500 180° South  Level FlightAware Approximate
Mon 01:52:54 PM 41.5247 -74.1822 230° Southwest 432 497 29,000  Level New York Center
Mon 01:53:54 PM 41.4211 -74.3014 221° Southwest 432 497 30,800 1,006 Climbing New York Center
Mon 01:55:00 PM 41.3436 -74.4205 229° Southwest  Level Estimated
Mon 01:55:53 PM 41.2406 -74.4850 229° Southwest 442 509 32,000  Level New York Center
Mon 01:57:00 PM 41.1620 -74.6058 229° Southwest  Level Estimated
Mon 01:58:00 PM 41.0476 -74.2253 230° Southwest  Level FlightAware Approximate
Mon 01:59:53 PM 40.8411 -74.9128 229° Southwest 468 539 32,000  Level New York Center
Mon 02:01:00 PM 40.7629 -75.0332 229° Southwest  Level Estimated
Mon 02:01:55 PM 40.6417 -75.1278 229° Southwest 463 533 32,000  Level New York Center
Mon 02:02:55 PM 40.5397 -75.2361 219° Southwest 463 533 32,000  Level New York Center
Mon 02:04:00 PM 40.6668 -75.3564 229° Southwest  Level Estimated
Mon 02:04:53 PM 40.3378 -75.4436 218° Southwest 463 533 32,000  Level New York Center
Mon 02:05:00 PM 40.5956 -75.4627 229° Southwest  Level Estimated
Mon 02:06:55 PM 40.1656 -75.6819 227° Southwest 458 527 32,000  Level New York Center
Mon 02:08:54 PM 40.0242 -75.9619 237° Southwest 464 534 32,000  Level New York Center
Mon 02:09:55 PM 39.9536 -76.0975 236° Southwest 469 540 32,000  Level New York Center
Mon 02:12:00 PM 39.8105 -76.3402 236° Southwest  Level FlightAware Approximate
Mon 02:12:55 PM 39.7339 -76.5156 236° Southwest 469 540 32,000  Level New York Center
Mon 02:13:56 PM 39.6622 -76.6556 236° Southwest 464 534 32,000  Level New York Center
Mon 02:15:00 PM 39.5906 -76.7805 233° Southwest  Level FlightAware Approximate
Mon 02:17:14 PM 39.3875 -77.0900 219° Southwest 466 536 32,000  Level Washington Center
Mon 02:19:13 PM 39.1950 -77.3031 221° Southwest 467 537 32,000  Level Washington Center
Mon 02:20:14 PM 39.1078 -77.4292 228° Southwest 461 531 32,000  Level Washington Center
Mon 02:21:14 PM 39.0247 -77.5500 229° Southwest 461 531 32,000  Level Washington Center
Mon 02:22:00 PM 39.0103 -77.4600 219° Southwest  Level FlightAware Approximate
Mon 02:23:12 PM 38.8517 -77.7908 227° Southwest 461 531 32,000  Level Washington Center
Mon 02:24:13 PM 38.7744 -77.9031 229° Southwest 461 531 32,000  Level Washington Center
Mon 02:25:15 PM 38.6886 -78.0225 227° Southwest 461 531 32,000  Level Washington Center
Mon 02:26:12 PM 38.6028 -78.1419 227° Southwest 461 531 32,000  Level Washington Center
Mon 02:28:00 PM 38.4836 -78.3534 227° Southwest  Level FlightAware Approximate
Mon 02:30:13 PM 38.2686 -78.6144 227° Southwest 461 531 32,000  Level Washington Center
Mon 02:32:00 PM 38.1322 -78.8014 227° Southwest  Level Estimated
Mon 02:34:13 PM 37.9158 -79.0925 227° Southwest 456 525 32,000  Level Washington Center
Mon 02:35:00 PM 37.9444 -79.0829 227° Southwest  Level FlightAware Approximate
Mon 02:36:13 PM 37.7589 -79.3114 228° Southwest 456 525 32,000  Level Washington Center
Mon 02:37:14 PM 37.6739 -79.4253 227° Southwest 451 519 32,000  Level Washington Center
Mon 02:38:14 PM 37.5800 -79.5542 227° Southwest 451 519 32,000  Level Washington Center
Mon 02:39:00 PM 37.5941 -79.5287 227° Southwest  Level Estimated
Mon 02:39:14 PM 37.5058 -79.6550 227° Southwest 451 519 32,000  Level Washington Center
Mon 02:40:12 PM 37.4203 -79.7733 228° Southwest 456 525 32,000  Level Washington Center
Mon 02:42:10 PM 37.2533 -79.9975 227° Southwest 452 520 32,000  Level Atlanta Center
Mon 02:44:10 PM 37.0814 -80.2275 227° Southwest 444 511 32,000 250 Level Atlanta Center
Mon 02:46:10 PM 36.8900 -80.4519 223° Southwest 455 524 33,000 700 Climbing Atlanta Center
Mon 02:47:10 PM 36.7928 -80.5472 218° Southwest 450 518 34,100 500 Climbing Atlanta Center
Mon 02:48:10 PM 36.7125 -80.6619 229° Southwest 436 502 34,000 -50 Descending Atlanta Center
Mon 02:49:10 PM 36.6261 -80.7769 227° Southwest 450 518 34,000  Level Atlanta Center
Mon 02:51:10 PM 36.4528 -81.0111 227° Southwest 466 536 34,000  Level Atlanta Center
Mon 02:52:10 PM 36.3639 -81.1306 227° Southwest 466 536 34,000  Level Atlanta Center
Mon 02:53:10 PM 36.2850 -81.2364 227° Southwest 466 536 34,000  Level Atlanta Center
Mon 02:54:10 PM 36.1958 -81.3578 228° Southwest 471 542 34,000  Level Atlanta Center
Mon 02:56:00 PM 36.0567 -81.5432 227° Southwest  Level FlightAware Approximate
Mon 02:58:10 PM 35.8506 -81.8200 229° Southwest 456 525 34,000  Level Atlanta Center
Mon 02:59:10 PM 35.7647 -81.9300 226° Southwest 456 525 34,000  Level Atlanta Center
Mon 03:01:00 PM 35.6193 -82.1069 225° Southwest  Level Estimated
Mon 03:02:10 PM 35.4903 -82.2533 225° Southwest 454 522 34,000  Level Atlanta Center
Mon 03:03:00 PM 35.5253 -82.2479 229° Southwest  Level FlightAware Approximate
Mon 03:03:10 PM 35.3897 -82.3700 223° Southwest 459 528 32,200  Level Atlanta Center
Mon 03:04:10 PM 35.2953 -82.4789 223° Southwest 465 535 29,900 -2,000 Descending Atlanta Center
Mon 03:05:10 PM 35.2047 -82.5822 223° Southwest 458 527 28,200 -1,450 Descending Atlanta Center
Mon 03:06:10 PM 35.1325 -82.6597 221° Southwest 430 495 27,000 -1,300 Descending Atlanta Center
Mon 03:07:10 PM 35.0564 -82.7522 225° Southwest 402 463 25,600 -1,400 Descending Atlanta Center
Mon 03:08:10 PM 34.9800 -82.8372 222° Southwest 386 444 24,200 -533 Descending Atlanta Center
Mon 03:10:10 PM 34.8356 -83.0064 224° Southwest 369 425 24,000 -67 Descending Atlanta Center
Mon 03:11:10 PM 34.7589 -83.0881 221° Southwest 363 418 24,000  Level Atlanta Center
Mon 03:13:00 PM 34.6143 -83.2637 220° Southwest  Level Estimated
Mon 03:13:10 PM 34.6119 -83.2539 220° Southwest 373 429 24,000  Level Atlanta Center
Mon 03:14:10 PM 34.5394 -83.3428 225° Southwest 368 423 23,100 -1,550 Descending Atlanta Center
Mon 03:15:10 PM 34.4647 -83.4242 222° Southwest 368 423 20,900 -2,150 Descending Atlanta Center
Mon 03:16:10 PM 34.3881 -83.5103 223° Southwest 368 423 18,800 -2,150 Descending Atlanta Center
Mon 03:17:10 PM 34.3172 -83.5886 222° Southwest 353 406 16,600 -2,150 Descending Atlanta Center
Mon 03:18:10 PM 34.2508 -83.6619 222° Southwest 337 388 14,500 -1,750 Descending Atlanta Center
Mon 03:19:10 PM 34.1861 -83.7325 222° Southwest 332 382 13,100 -872 Descending Atlanta Center
Mon 03:21:09 PM 34.0667 -83.8667 223° Southwest 271 312 11,900 -804 Descending Atlanta TRACON
Mon 03:22:09 PM 34.0167 -83.9167 220° Southwest 265 305 10,700 -833 Descending Atlanta TRACON
Mon 03:24:09 PM 33.8833 -83.9667 197° South 278 320 9,400 -567 Descending Atlanta TRACON
Mon 03:25:09 PM 33.8000 -83.9500 171° South 277 319 9,000 -397 Descending Atlanta TRACON
Mon 03:26:10 PM 33.7336 -83.9389 172° South 277 319 8,600 -525 Descending Atlanta Center
Mon 03:29:09 PM 33.6333 -84.0833 230° Southwest 210 242 6,900 -886 Descending Atlanta TRACON
Mon 03:31:00 PM 33.6367 -84.4279 270° West  Level Estimated
Mon 03:32:09 PM 33.6333 -84.2833 64° Northeast 186 214 3,300  Level Atlanta TRACON
Mon 03:33:09 PM 33.6333 -84.3500 270° West 175 201 2,300 -900 Descending Atlanta TRACON
Mon 03:34:09 PM 33.6333 -84.4000 270° West 140 161 1,500 -800 Descending Atlanta TRACON
Mon 03:36:00 PM 33.6367 -84.4279 270° West  Level Estimated
Mon 03:38:00 PM 33.6367 -84.4279 64° Northeast  Level Estimated
Mon 03:43:00 PM 33.6367 -84.4279 64° Northeast  Level Estimated
Mon 03:44:00 PM 33.6367 -84.4279 64° Northeast  Level Estimated
Mon 03:45:00 PM 33.6367 -84.4279 64° Northeast  Level Estimated
Mon 03:46:00 PM 33.6367 -84.4279 64° Northeast  Level Estimated
Mon 03:47:00 PM 33.6367 -84.4279 64° Northeast  Level Estimated
Mon 03:48:00 PM 33.6367 -84.4279 64° Northeast  Level Estimated
Mon 03:49:00 PM 33.6367 -84.4279 64° Northeast  Level Estimated
Mon 03:50:00 PM 33.6367 -84.4279 64° Northeast  Level Estimated
Mon 03:51:00 PM 33.6367 -84.4279 64° Northeast  Level Estimated
Mon 03:52:00 PM 33.6367 -84.4279 64° Northeast  Level Estimated
Mon 03:53:00 PM 33.6367 -84.4279 64° Northeast  Level Estimated
Mon 03:54:00 PM 33.6367 -84.4279 64° Northeast  Level Estimated
Mon 03:55:00 PM 33.6367 -84.4279 64° Northeast  Level Estimated
Mon 03:56:00 PM 33.6367 -84.4279 64° Northeast  Level Estimated
Mon 03:57:00 PM 33.6367 -84.4279 64° Northeast  Level Estimated
Mon 03:58:00 PM 33.6367 -84.4279 64° Northeast  Level Estimated
Mon 03:59:00 PM 33.6367 -84.4279 64° Northeast  Level Estimated
Mon 04:00:00 PM 33.6367 -84.4279 64° Northeast  Level Estimated

Login

Don't have an account? Register now (free) for customized features, flight alerts, and more!